sensor_id;sensor_type;location;lat;lon;timestamp;pressure;altitude;pressure_sealevel;temperature;humidity
68380;BME280;57711;53.196;19.638;2023-01-26T00:01:24;101048.68;;;-0.07;69.73
68380;BME280;57711;53.196;19.638;2023-01-26T00:03:54;101038.64;;;-0.10;69.64
68380;BME280;57711;53.196;19.638;2023-01-26T00:06:22;101034.36;;;-0.09;69.77
68380;BME280;57711;53.196;19.638;2023-01-26T00:08:51;101029.06;;;-0.11;69.66
68380;BME280;57711;53.196;19.638;2023-01-26T00:11:20;101026.81;;;-0.12;69.66
68380;BME280;57711;53.196;19.638;2023-01-26T00:13:53;101027.23;;;-0.14;69.85
68380;BME280;57711;53.196;19.638;2023-01-26T00:16:20;101029.27;;;-0.16;69.82
68380;BME280;57711;53.196;19.638;2023-01-26T00:18:48;101029.62;;;-0.16;69.79
68380;BME280;57711;53.196;19.638;2023-01-26T00:21:19;101021.15;;;-0.13;69.92
68380;BME280;57711;53.196;19.638;2023-01-26T00:23:47;101012.67;;;-0.09;69.88
68380;BME280;57711;53.196;19.638;2023-01-26T00:26:20;101013.02;;;-0.09;69.85
68380;BME280;57711;53.196;19.638;2023-01-26T00:28:48;101009.70;;;-0.11;69.92
68380;BME280;57711;53.196;19.638;2023-01-26T00:31:22;101011.04;;;-0.14;69.75
68380;BME280;57711;53.196;19.638;2023-01-26T00:33:52;101011.92;;;-0.13;70.01
68380;BME280;57711;53.196;19.638;2023-01-26T00:36:20;101009.90;;;-0.12;70.04
68380;BME280;57711;53.196;19.638;2023-01-26T00:38:47;101009.30;;;-0.10;70.00
68380;BME280;57711;53.196;19.638;2023-01-26T00:41:15;101005.40;;;-0.05;70.03
68380;BME280;57711;53.196;19.638;2023-01-26T00:44:01;101001.89;;;-0.00;69.94
68380;BME280;57711;53.196;19.638;2023-01-26T00:46:28;100999.59;;;-0.01;69.90
68380;BME280;57711;53.196;19.638;2023-01-26T00:48:55;100997.29;;;-0.01;70.01
68380;BME280;57711;53.196;19.638;2023-01-26T00:51:23;100997.64;;;-0.01;70.04
68380;BME280;57711;53.196;19.638;2023-01-26T00:53:50;100996.59;;;-0.02;70.04
68380;BME280;57711;53.196;19.638;2023-01-26T00:56:18;100994.50;;;-0.03;70.05
68380;BME280;57711;53.196;19.638;2023-01-26T00:58:45;100992.72;;;-0.03;70.03
68380;BME280;57711;53.196;19.638;2023-01-26T01:01:13;100986.41;;;0.00;70.13
68380;BME280;57711;53.196;19.638;2023-01-26T01:03:41;100985.24;;;0.03;70.12
68380;BME280;57711;53.196;19.638;2023-01-26T01:06:08;100982.79;;;0.07;70.07
68380;BME280;57711;53.196;19.638;2023-01-26T01:08:35;100986.45;;;0.09;70.07
68380;BME280;57711;53.196;19.638;2023-01-26T01:11:07;100981.30;;;0.09;70.10
68380;BME280;57711;53.196;19.638;2023-01-26T01:13:35;100982.61;;;0.12;70.25
68380;BME280;57711;53.196;19.638;2023-01-26T01:16:07;100975.09;;;0.14;70.14
68380;BME280;57711;53.196;19.638;2023-01-26T01:18:35;100969.66;;;0.11;70.19
68380;BME280;57711;53.196;19.638;2023-01-26T01:21:06;100965.25;;;0.11;70.23
68380;BME280;57711;53.196;19.638;2023-01-26T01:23:35;100964.23;;;0.09;70.20
68380;BME280;57711;53.196;19.638;2023-01-26T01:26:03;100966.14;;;0.11;70.17
68380;BME280;57711;53.196;19.638;2023-01-26T01:28:31;100964.85;;;0.12;70.18
68380;BME280;57711;53.196;19.638;2023-01-26T01:31:03;100965.33;;;0.13;70.21
68380;BME280;57711;53.196;19.638;2023-01-26T01:33:30;100960.71;;;0.13;70.18
68380;BME280;57711;53.196;19.638;2023-01-26T01:35:59;100962.48;;;0.13;70.18
68380;BME280;57711;53.196;19.638;2023-01-26T01:38:27;100955.94;;;0.13;70.24
68380;BME280;57711;53.196;19.638;2023-01-26T01:40:54;100948.47;;;0.13;70.32
68380;BME280;57711;53.196;19.638;2023-01-26T01:43:26;100952.40;;;0.12;70.34
68380;BME280;57711;53.196;19.638;2023-01-26T01:45:54;100956.70;;;0.11;70.33
68380;BME280;57711;53.196;19.638;2023-01-26T01:51:15;100956.67;;;0.17;70.25
68380;BME280;57711;53.196;19.638;2023-01-26T01:53:47;100958.89;;;0.19;70.28
68380;BME280;57711;53.196;19.638;2023-01-26T01:56:20;100957.11;;;0.20;70.23
68380;BME280;57711;53.196;19.638;2023-01-26T01:58:51;100957.73;;;0.17;70.23
68380;BME280;57711;53.196;19.638;2023-01-26T02:01:19;100952.45;;;0.15;70.37
68380;BME280;57711;53.196;19.638;2023-01-26T02:03:50;100948.05;;;0.14;70.44
68380;BME280;57711;53.196;19.638;2023-01-26T02:06:22;100940.74;;;0.14;70.34
68380;BME280;57711;53.196;19.638;2023-01-26T02:08:55;100938.23;;;0.15;70.37
68380;BME280;57711;53.196;19.638;2023-01-26T02:11:39;100937.48;;;0.16;70.41
68380;BME280;57711;53.196;19.638;2023-01-26T02:14:09;100935.04;;;0.21;70.51
68380;BME280;57711;53.196;19.638;2023-01-26T02:16:37;100929.73;;;0.24;70.39
68380;BME280;57711;53.196;19.638;2023-01-26T02:19:31;100922.30;;;0.23;70.30
68380;BME280;57711;53.196;19.638;2023-01-26T02:22:04;100916.20;;;0.20;70.28
68380;BME280;57711;53.196;19.638;2023-01-26T02:24:36;100917.05;;;0.16;70.40
68380;BME280;57711;53.196;19.638;2023-01-26T02:27:06;100915.99;;;0.15;70.42
68380;BME280;57711;53.196;19.638;2023-01-26T02:29:33;100910.95;;;0.17;70.46
68380;BME280;57711;53.196;19.638;2023-01-26T02:32:00;100907.73;;;0.17;70.39
68380;BME280;57711;53.196;19.638;2023-01-26T02:34:28;100898.46;;;0.18;70.37
68380;BME280;57711;53.196;19.638;2023-01-26T02:36:56;100901.44;;;0.20;70.43
68380;BME280;57711;53.196;19.638;2023-01-26T02:39:42;100894.80;;;0.22;70.45
68380;BME280;57711;53.196;19.638;2023-01-26T02:42:11;100895.70;;;0.21;70.48
68380;BME280;57711;53.196;19.638;2023-01-26T02:44:57;100900.57;;;0.19;70.48
68380;BME280;57711;53.196;19.638;2023-01-26T02:47:24;100898.30;;;0.17;70.37
68380;BME280;57711;53.196;19.638;2023-01-26T02:49:51;100901.35;;;0.17;70.34
68380;BME280;57711;53.196;19.638;2023-01-26T02:52:24;100897.08;;;0.17;70.33
68380;BME280;57711;53.196;19.638;2023-01-26T02:54:56;100894.92;;;0.18;70.41
68380;BME280;57711;53.196;19.638;2023-01-26T02:57:43;100895.51;;;0.17;70.29
68380;BME280;57711;53.196;19.638;2023-01-26T03:00:15;100891.63;;;0.15;70.48
68380;BME280;57711;53.196;19.638;2023-01-26T03:02:45;100885.98;;;0.19;70.51
68380;BME280;57711;53.196;19.638;2023-01-26T03:05:12;100882.33;;;0.22;70.41
68380;BME280;57711;53.196;19.638;2023-01-26T03:07:40;100881.45;;;0.22;70.38
68380;BME280;57711;53.196;19.638;2023-01-26T03:10:08;100878.96;;;0.22;70.45
68380;BME280;57711;53.196;19.638;2023-01-26T03:12:36;100881.55;;;0.24;70.60
68380;BME280;57711;53.196;19.638;2023-01-26T03:15:04;100876.71;;;0.25;70.55
68380;BME280;57711;53.196;19.638;2023-01-26T03:17:50;100873.78;;;0.27;70.53
68380;BME280;57711;53.196;19.638;2023-01-26T03:20:38;100866.88;;;0.31;70.52
68380;BME280;57711;53.196;19.638;2023-01-26T03:23:41;100870.39;;;0.37;70.52
68380;BME280;57711;53.196;19.638;2023-01-26T03:26:27;100865.75;;;0.42;70.47
68380;BME280;57711;53.196;19.638;2023-01-26T03:29:14;100865.01;;;0.48;70.55
68380;BME280;57711;53.196;19.638;2023-01-26T03:31:42;100865.63;;;0.50;70.47
68380;BME280;57711;53.196;19.638;2023-01-26T03:34:10;100865.44;;;0.51;70.62
68380;BME280;57711;53.196;19.638;2023-01-26T03:36:37;100863.48;;;0.51;70.65
68380;BME280;57711;53.196;19.638;2023-01-26T03:39:08;100860.86;;;0.49;70.55
68380;BME280;57711;53.196;19.638;2023-01-26T03:41:35;100853.81;;;0.48;70.67
68380;BME280;57711;53.196;19.638;2023-01-26T03:44:21;100851.34;;;0.47;70.57
68380;BME280;57711;53.196;19.638;2023-01-26T03:47:07;100845.88;;;0.46;70.50
68380;BME280;57711;53.196;19.638;2023-01-26T03:49:53;100850.11;;;0.42;70.39
68380;BME280;57711;53.196;19.638;2023-01-26T03:52:39;100844.92;;;0.38;70.51
68380;BME280;57711;53.196;19.638;2023-01-26T03:55:25;100842.27;;;0.33;70.42
68380;BME280;57711;53.196;19.638;2023-01-26T03:58:11;100841.96;;;0.31;70.55
68380;BME280;57711;53.196;19.638;2023-01-26T04:00:38;100834.58;;;0.34;70.58
68380;BME280;57711;53.196;19.638;2023-01-26T04:03:06;100827.39;;;0.36;70.58
68380;BME280;57711;53.196;19.638;2023-01-26T04:05:57;100823.75;;;0.39;70.55
68380;BME280;57711;53.196;19.638;2023-01-26T04:08:46;100823.60;;;0.38;70.64
68380;BME280;57711;53.196;19.638;2023-01-26T04:11:14;100813.77;;;0.39;70.68
68380;BME280;57711;53.196;19.638;2023-01-26T04:13:42;100804.84;;;0.40;70.64
68380;BME280;57711;53.196;19.638;2023-01-26T04:16:30;100805.20;;;0.40;70.61
68380;BME280;57711;53.196;19.638;2023-01-26T04:19:16;100802.33;;;0.40;70.61
68380;BME280;57711;53.196;19.638;2023-01-26T04:22:02;100801.19;;;0.42;70.63
68380;BME280;57711;53.196;19.638;2023-01-26T04:24:32;100804.13;;;0.44;70.63
68380;BME280;57711;53.196;19.638;2023-01-26T04:26:59;100801.18;;;0.47;70.66
68380;BME280;57711;53.196;19.638;2023-01-26T04:29:35;100804.13;;;0.49;70.72
68380;BME280;57711;53.196;19.638;2023-01-26T04:32:03;100805.66;;;0.51;70.75
68380;BME280;57711;53.196;19.638;2023-01-26T04:34:31;100803.79;;;0.53;70.80
68380;BME280;57711;53.196;19.638;2023-01-26T04:37:00;100807.38;;;0.57;70.88
68380;BME280;57711;53.196;19.638;2023-01-26T04:39:39;100809.39;;;0.60;70.90
68380;BME280;57711;53.196;19.638;2023-01-26T04:42:07;100810.24;;;0.61;70.92
68380;BME280;57711;53.196;19.638;2023-01-26T04:44:34;100811.98;;;0.67;70.82
68380;BME280;57711;53.196;19.638;2023-01-26T04:47:03;100810.23;;;0.70;70.85
68380;BME280;57711;53.196;19.638;2023-01-26T04:49:32;100813.27;;;0.74;70.80
68380;BME280;57711;53.196;19.638;2023-01-26T04:51:59;100816.05;;;0.81;70.86
68380;BME280;57711;53.196;19.638;2023-01-26T04:54:27;100814.04;;;0.87;70.84
68380;BME280;57711;53.196;19.638;2023-01-26T04:56:55;100812.21;;;0.92;70.91
68380;BME280;57711;53.196;19.638;2023-01-26T04:59:22;100809.30;;;0.93;70.82
68380;BME280;57711;53.196;19.638;2023-01-26T05:01:52;100805.30;;;0.96;70.79
68380;BME280;57711;53.196;19.638;2023-01-26T05:04:20;100797.25;;;0.97;70.76
68380;BME280;57711;53.196;19.638;2023-01-26T05:06:47;100794.58;;;0.97;70.98
68380;BME280;57711;53.196;19.638;2023-01-26T05:09:14;100787.55;;;0.99;71.01
68380;BME280;57711;53.196;19.638;2023-01-26T05:11:43;100785.41;;;0.99;70.89
68380;BME280;57711;53.196;19.638;2023-01-26T05:14:33;100788.52;;;0.97;70.77
68380;BME280;57711;53.196;19.638;2023-01-26T05:17:15;100779.77;;;0.97;70.82
68380;BME280;57711;53.196;19.638;2023-01-26T05:20:16;100775.44;;;0.99;70.77
68380;BME280;57711;53.196;19.638;2023-01-26T05:23:09;100775.17;;;1.01;70.76
68380;BME280;57711;53.196;19.638;2023-01-26T05:25:59;100773.87;;;1.07;70.90
68380;BME280;57711;53.196;19.638;2023-01-26T05:28:28;100774.09;;;1.10;70.86
68380;BME280;57711;53.196;19.638;2023-01-26T05:30:55;100779.98;;;1.09;70.73
68380;BME280;57711;53.196;19.638;2023-01-26T05:33:22;100774.55;;;1.11;70.97
68380;BME280;57711;53.196;19.638;2023-01-26T05:35:51;100769.69;;;1.13;70.84
68380;BME280;57711;53.196;19.638;2023-01-26T05:38:19;100771.46;;;1.09;70.83
68380;BME280;57711;53.196;19.638;2023-01-26T05:40:47;100773.63;;;1.04;70.85
68380;BME280;57711;53.196;19.638;2023-01-26T05:43:14;100773.73;;;1.02;70.91
68380;BME280;57711;53.196;19.638;2023-01-26T05:46:01;100776.38;;;0.98;70.95
68380;BME280;57711;53.196;19.638;2023-01-26T05:48:28;100774.48;;;1.00;70.86
68380;BME280;57711;53.196;19.638;2023-01-26T05:50:56;100780.59;;;1.03;70.91
68380;BME280;57711;53.196;19.638;2023-01-26T05:53:24;100783.20;;;1.05;70.98
68380;BME280;57711;53.196;19.638;2023-01-26T05:55:52;100789.16;;;1.11;71.05
68380;BME280;57711;53.196;19.638;2023-01-26T05:58:22;100791.45;;;1.17;70.87
68380;BME280;57711;53.196;19.638;2023-01-26T06:00:49;100792.77;;;1.19;70.88
68380;BME280;57711;53.196;19.638;2023-01-26T06:03:21;100794.68;;;1.25;71.05
68380;BME280;57711;53.196;19.638;2023-01-26T06:05:53;100793.75;;;1.30;70.95
68380;BME280;57711;53.196;19.638;2023-01-26T06:08:29;100793.20;;;1.34;70.88
68380;BME280;57711;53.196;19.638;2023-01-26T06:11:16;100791.67;;;1.37;70.94
68380;BME280;57711;53.196;19.638;2023-01-26T06:13:49;100785.49;;;1.35;70.87
68380;BME280;57711;53.196;19.638;2023-01-26T06:16:21;100785.58;;;1.34;70.74
68380;BME280;57711;53.196;19.638;2023-01-26T06:18:49;100783.78;;;1.34;70.90
68380;BME280;57711;53.196;19.638;2023-01-26T06:21:17;100779.55;;;1.37;70.88
68380;BME280;57711;53.196;19.638;2023-01-26T06:23:44;100779.55;;;1.41;70.74
68380;BME280;57711;53.196;19.638;2023-01-26T06:26:12;100775.48;;;1.44;70.79
68380;BME280;57711;53.196;19.638;2023-01-26T06:28:40;100773.17;;;1.48;70.80
68380;BME280;57711;53.196;19.638;2023-01-26T06:31:08;100775.71;;;1.51;70.68
68380;BME280;57711;53.196;19.638;2023-01-26T06:33:37;100778.51;;;1.53;70.85
68380;BME280;57711;53.196;19.638;2023-01-26T06:36:08;100777.23;;;1.54;70.80
68380;BME280;57711;53.196;19.638;2023-01-26T06:38:36;100779.80;;;1.52;70.73
68380;BME280;57711;53.196;19.638;2023-01-26T06:41:06;100782.70;;;1.51;70.77
68380;BME280;57711;53.196;19.638;2023-01-26T06:43:34;100783.77;;;1.50;70.86
68380;BME280;57711;53.196;19.638;2023-01-26T06:46:03;100781.31;;;1.50;70.81
68380;BME280;57711;53.196;19.638;2023-01-26T06:48:33;100775.65;;;1.48;70.82
68380;BME280;57711;53.196;19.638;2023-01-26T06:51:42;100775.70;;;1.47;70.90
68380;BME280;57711;53.196;19.638;2023-01-26T06:54:11;100780.75;;;1.50;70.86
68380;BME280;57711;53.196;19.638;2023-01-26T06:56:59;100783.23;;;1.51;70.79
68380;BME280;57711;53.196;19.638;2023-01-26T06:59:47;100786.66;;;1.54;70.89
68380;BME280;57711;53.196;19.638;2023-01-26T07:02:29;100787.00;;;1.58;70.83
68380;BME280;57711;53.196;19.638;2023-01-26T07:04:57;100783.90;;;1.60;70.76
68380;BME280;57711;53.196;19.638;2023-01-26T07:07:24;100784.46;;;1.60;70.69
68380;BME280;57711;53.196;19.638;2023-01-26T07:09:51;100781.57;;;1.60;70.89
68380;BME280;57711;53.196;19.638;2023-01-26T07:12:18;100777.95;;;1.62;70.91
68380;BME280;57711;53.196;19.638;2023-01-26T07:14:45;100773.61;;;1.63;71.04
68380;BME280;57711;53.196;19.638;2023-01-26T07:17:12;100765.52;;;1.61;70.84
68380;BME280;57711;53.196;19.638;2023-01-26T07:19:40;100765.79;;;1.58;70.89
68380;BME280;57711;53.196;19.638;2023-01-26T07:22:07;100768.19;;;1.53;70.76
68380;BME280;57711;53.196;19.638;2023-01-26T07:24:34;100770.33;;;1.52;70.94
68380;BME280;57711;53.196;19.638;2023-01-26T07:27:02;100775.23;;;1.55;70.98
68380;BME280;57711;53.196;19.638;2023-01-26T07:29:29;100778.73;;;1.56;71.03
68380;BME280;57711;53.196;19.638;2023-01-26T07:31:56;100775.25;;;1.54;70.93
68380;BME280;57711;53.196;19.638;2023-01-26T07:34:23;100771.60;;;1.51;70.91
68380;BME280;57711;53.196;19.638;2023-01-26T07:36:51;100769.24;;;1.49;70.83
68380;BME280;57711;53.196;19.638;2023-01-26T07:39:18;100767.33;;;1.43;70.94
68380;BME280;57711;53.196;19.638;2023-01-26T07:41:45;100770.00;;;1.43;71.07
68380;BME280;57711;53.196;19.638;2023-01-26T07:44:40;100770.82;;;1.45;71.26
68380;BME280;57711;53.196;19.638;2023-01-26T07:47:07;100769.91;;;1.46;71.27
68380;BME280;57711;53.196;19.638;2023-01-26T07:49:34;100771.41;;;1.44;71.19
68380;BME280;57711;53.196;19.638;2023-01-26T07:52:02;100776.20;;;1.40;71.24
68380;BME280;57711;53.196;19.638;2023-01-26T07:54:30;100776.75;;;1.40;71.19
68380;BME280;57711;53.196;19.638;2023-01-26T07:56:57;100775.85;;;1.40;71.19
68380;BME280;57711;53.196;19.638;2023-01-26T07:59:25;100773.14;;;1.41;71.22
68380;BME280;57711;53.196;19.638;2023-01-26T08:01:52;100769.32;;;1.43;71.25
68380;BME280;57711;53.196;19.638;2023-01-26T08:04:20;100769.61;;;1.44;71.14
68380;BME280;57711;53.196;19.638;2023-01-26T08:06:50;100770.62;;;1.46;71.23
68380;BME280;57711;53.196;19.638;2023-01-26T08:09:17;100773.98;;;1.46;71.17
68380;BME280;57711;53.196;19.638;2023-01-26T08:11:45;100777.18;;;1.42;71.22
68380;BME280;57711;53.196;19.638;2023-01-26T08:14:12;100774.02;;;1.41;71.23
68380;BME280;57711;53.196;19.638;2023-01-26T08:16:39;100778.28;;;1.41;71.32
68380;BME280;57711;53.196;19.638;2023-01-26T08:19:06;100771.38;;;1.40;71.36
68380;BME280;57711;53.196;19.638;2023-01-26T08:21:34;100774.93;;;1.41;71.33
68380;BME280;57711;53.196;19.638;2023-01-26T08:24:02;100776.71;;;1.41;71.36
68380;BME280;57711;53.196;19.638;2023-01-26T08:26:29;100779.30;;;1.43;71.30
68380;BME280;57711;53.196;19.638;2023-01-26T08:28:56;100780.08;;;1.45;71.36
68380;BME280;57711;53.196;19.638;2023-01-26T08:31:24;100776.03;;;1.48;71.41
68380;BME280;57711;53.196;19.638;2023-01-26T08:33:52;100774.16;;;1.50;71.31
68380;BME280;57711;53.196;19.638;2023-01-26T08:36:21;100770.38;;;1.51;71.40
68380;BME280;57711;53.196;19.638;2023-01-26T08:38:49;100764.38;;;1.54;71.31
68380;BME280;57711;53.196;19.638;2023-01-26T08:41:17;100760.75;;;1.55;71.38
68380;BME280;57711;53.196;19.638;2023-01-26T08:43:44;100760.23;;;1.55;71.42
68380;BME280;57711;53.196;19.638;2023-01-26T08:46:12;100753.70;;;1.54;71.42
68380;BME280;57711;53.196;19.638;2023-01-26T08:48:39;100752.24;;;1.46;71.22
68380;BME280;57711;53.196;19.638;2023-01-26T08:51:06;100752.92;;;1.39;71.35
68380;BME280;57711;53.196;19.638;2023-01-26T08:53:35;100751.81;;;1.35;71.35
68380;BME280;57711;53.196;19.638;2023-01-26T08:56:05;100750.36;;;1.36;71.37
68380;BME280;57711;53.196;19.638;2023-01-26T08:58:33;100753.61;;;1.35;71.30
68380;BME280;57711;53.196;19.638;2023-01-26T09:01:05;100754.59;;;1.33;71.36
68380;BME280;57711;53.196;19.638;2023-01-26T09:03:32;100751.60;;;1.32;71.32
68380;BME280;57711;53.196;19.638;2023-01-26T09:06:01;100755.22;;;1.35;71.46
68380;BME280;57711;53.196;19.638;2023-01-26T09:08:30;100752.91;;;1.35;71.40
68380;BME280;57711;53.196;19.638;2023-01-26T09:10:58;100751.89;;;1.29;71.39
68380;BME280;57711;53.196;19.638;2023-01-26T09:13:25;100751.46;;;1.23;71.27
68380;BME280;57711;53.196;19.638;2023-01-26T09:15:52;100748.76;;;1.20;71.33
68380;BME280;57711;53.196;19.638;2023-01-26T09:18:20;100743.41;;;1.19;71.40
68380;BME280;57711;53.196;19.638;2023-01-26T09:20:47;100744.08;;;1.21;71.45
68380;BME280;57711;53.196;19.638;2023-01-26T09:23:17;100748.39;;;1.20;71.33
68380;BME280;57711;53.196;19.638;2023-01-26T09:25:44;100751.79;;;1.19;71.45
68380;BME280;57711;53.196;19.638;2023-01-26T09:28:11;100746.56;;;1.21;71.54
68380;BME280;57711;53.196;19.638;2023-01-26T09:30:38;100747.36;;;1.19;71.49
68380;BME280;57711;53.196;19.638;2023-01-26T09:33:06;100745.36;;;1.16;71.47
68380;BME280;57711;53.196;19.638;2023-01-26T09:35:33;100743.73;;;1.12;71.49
68380;BME280;57711;53.196;19.638;2023-01-26T09:38:00;100748.27;;;1.14;71.55
68380;BME280;57711;53.196;19.638;2023-01-26T09:41:01;100749.95;;;1.12;71.46
68380;BME280;57711;53.196;19.638;2023-01-26T09:43:50;100751.80;;;1.15;71.56
68380;BME280;57711;53.196;19.638;2023-01-26T09:46:24;100744.66;;;1.19;71.70
68380;BME280;57711;53.196;19.638;2023-01-26T09:49:04;100740.61;;;1.23;71.80
68380;BME280;57711;53.196;19.638;2023-01-26T09:51:36;100741.02;;;1.25;71.90
68380;BME280;57711;53.196;19.638;2023-01-26T09:56:49;100738.73;;;1.25;71.67
68380;BME280;57711;53.196;19.638;2023-01-26T09:59:37;100731.80;;;1.24;71.71
68380;BME280;57711;53.196;19.638;2023-01-26T10:04:49;100719.52;;;1.28;71.52
68380;BME280;57711;53.196;19.638;2023-01-26T10:07:18;100723.13;;;1.23;71.57
68380;BME280;57711;53.196;19.638;2023-01-26T10:09:50;100719.44;;;1.22;71.74
68380;BME280;57711;53.196;19.638;2023-01-26T10:14:58;100712.95;;;1.24;71.79
68380;BME280;57711;53.196;19.638;2023-01-26T10:17:39;100704.33;;;1.22;71.79
68380;BME280;57711;53.196;19.638;2023-01-26T10:22:45;100710.00;;;1.18;71.74
68380;BME280;57711;53.196;19.638;2023-01-26T10:27:53;100705.77;;;1.21;71.68
68380;BME280;57711;53.196;19.638;2023-01-26T10:30:21;100701.40;;;1.19;71.64
68380;BME280;57711;53.196;19.638;2023-01-26T10:32:52;100700.52;;;1.14;71.81
68380;BME280;57711;53.196;19.638;2023-01-26T10:35:22;100701.69;;;1.12;71.83
68380;BME280;57711;53.196;19.638;2023-01-26T10:37:51;100700.96;;;1.12;71.81
68380;BME280;57711;53.196;19.638;2023-01-26T10:40:19;100697.55;;;1.13;71.80
68380;BME280;57711;53.196;19.638;2023-01-26T10:43:00;100697.67;;;1.15;71.84
68380;BME280;57711;53.196;19.638;2023-01-26T10:48:12;100697.17;;;1.22;71.95
68380;BME280;57711;53.196;19.638;2023-01-26T10:50:41;100692.70;;;1.31;72.02
68380;BME280;57711;53.196;19.638;2023-01-26T10:53:15;100695.73;;;1.39;72.13
68380;BME280;57711;53.196;19.638;2023-01-26T10:55:56;100696.18;;;1.44;72.05
68380;BME280;57711;53.196;19.638;2023-01-26T11:01:14;100693.62;;;1.38;72.01
68380;BME280;57711;53.196;19.638;2023-01-26T11:04:11;100686.27;;;1.39;72.07
68380;BME280;57711;53.196;19.638;2023-01-26T11:06:42;100690.17;;;1.47;72.09
68380;BME280;57711;53.196;19.638;2023-01-26T11:12:03;100686.70;;;1.54;71.89
68380;BME280;57711;53.196;19.638;2023-01-26T11:14:32;100684.02;;;1.54;71.88
68380;BME280;57711;53.196;19.638;2023-01-26T11:19:47;100675.09;;;1.54;72.08
68380;BME280;57711;53.196;19.638;2023-01-26T11:22:23;100677.36;;;1.51;72.07
68380;BME280;57711;53.196;19.638;2023-01-26T11:25:08;100679.66;;;1.48;72.03
68380;BME280;57711;53.196;19.638;2023-01-26T11:30:32;100686.30;;;1.38;71.85
68380;BME280;57711;53.196;19.638;2023-01-26T11:38:41;100673.94;;;1.36;71.94
68380;BME280;57711;53.196;19.638;2023-01-26T11:47:04;100649.88;;;1.28;72.04
68380;BME280;57711;53.196;19.638;2023-01-26T12:00:13;100626.58;;;1.15;72.05
68380;BME280;57711;53.196;19.638;2023-01-26T12:03:02;100624.56;;;1.12;72.10
68380;BME280;57711;53.196;19.638;2023-01-26T12:05:40;100625.45;;;1.13;72.29
68380;BME280;57711;53.196;19.638;2023-01-26T12:08:28;100631.98;;;1.18;72.20
68380;BME280;57711;53.196;19.638;2023-01-26T12:11:07;100632.82;;;1.23;72.14
68380;BME280;57711;53.196;19.638;2023-01-26T12:25:06;100617.14;;;1.31;72.29
68380;BME280;57711;53.196;19.638;2023-01-26T12:33:13;100616.30;;;1.38;72.28
68380;BME280;57711;53.196;19.638;2023-01-26T12:41:34;100603.70;;;1.41;72.37
68380;BME280;57711;53.196;19.638;2023-01-26T12:46:55;100606.83;;;1.43;72.38
68380;BME280;57711;53.196;19.638;2023-01-26T12:49:31;100611.44;;;1.43;72.56
68380;BME280;57711;53.196;19.638;2023-01-26T12:52:06;100607.53;;;1.46;72.50
68380;BME280;57711;53.196;19.638;2023-01-26T12:54:45;100608.44;;;1.50;72.34
68380;BME280;57711;53.196;19.638;2023-01-26T12:57:19;100613.16;;;1.52;72.30
68380;BME280;57711;53.196;19.638;2023-01-26T12:59:47;100612.04;;;1.54;72.17
68380;BME280;57711;53.196;19.638;2023-01-26T13:04:43;100605.48;;;1.57;72.50
68380;BME280;57711;53.196;19.638;2023-01-26T13:07:36;100605.95;;;1.58;72.42
68380;BME280;57711;53.196;19.638;2023-01-26T13:15:27;100607.56;;;1.58;72.49
68380;BME280;57711;53.196;19.638;2023-01-26T13:18:00;100606.35;;;1.57;72.37
68380;BME280;57711;53.196;19.638;2023-01-26T13:20:40;100604.63;;;1.56;72.34
68380;BME280;57711;53.196;19.638;2023-01-26T13:26:20;100600.19;;;1.59;72.32
68380;BME280;57711;53.196;19.638;2023-01-26T13:28:50;100595.49;;;1.60;72.33
68380;BME280;57711;53.196;19.638;2023-01-26T13:31:30;100591.39;;;1.61;72.21
68380;BME280;57711;53.196;19.638;2023-01-26T13:34:05;100586.92;;;1.61;72.36
68380;BME280;57711;53.196;19.638;2023-01-26T13:36:35;100584.92;;;1.61;72.56
68380;BME280;57711;53.196;19.638;2023-01-26T13:39:11;100580.94;;;1.63;72.45
68380;BME280;57711;53.196;19.638;2023-01-26T13:41:45;100575.63;;;1.62;72.56
68380;BME280;57711;53.196;19.638;2023-01-26T13:44:17;100570.23;;;1.60;72.41
68380;BME280;57711;53.196;19.638;2023-01-26T13:47:03;100568.58;;;1.61;72.51
68380;BME280;57711;53.196;19.638;2023-01-26T13:52:11;100568.17;;;1.69;72.52
68380;BME280;57711;53.196;19.638;2023-01-26T13:54:42;100573.38;;;1.72;72.58
68380;BME280;57711;53.196;19.638;2023-01-26T13:57:10;100573.69;;;1.77;72.49
68380;BME280;57711;53.196;19.638;2023-01-26T13:59:49;100575.05;;;1.78;72.45
68380;BME280;57711;53.196;19.638;2023-01-26T14:02:27;100583.47;;;1.77;72.61
68380;BME280;57711;53.196;19.638;2023-01-26T14:04:57;100586.23;;;1.79;72.69
68380;BME280;57711;53.196;19.638;2023-01-26T14:07:38;100589.02;;;1.81;72.66
68380;BME280;57711;53.196;19.638;2023-01-26T14:10:07;100586.84;;;1.81;72.58
68380;BME280;57711;53.196;19.638;2023-01-26T14:12:43;100582.41;;;1.81;72.70
68380;BME280;57711;53.196;19.638;2023-01-26T14:15:31;100583.05;;;1.78;72.56
68380;BME280;57711;53.196;19.638;2023-01-26T14:18:01;100586.90;;;1.80;72.61
68380;BME280;57711;53.196;19.638;2023-01-26T14:20:36;100584.63;;;1.83;72.62
68380;BME280;57711;53.196;19.638;2023-01-26T14:23:13;100585.13;;;1.87;72.61
68380;BME280;57711;53.196;19.638;2023-01-26T14:25:47;100584.98;;;1.91;72.54
68380;BME280;57711;53.196;19.638;2023-01-26T14:28:26;100582.67;;;1.94;72.52
68380;BME280;57711;53.196;19.638;2023-01-26T14:30:59;100587.83;;;1.95;72.49
68380;BME280;57711;53.196;19.638;2023-01-26T14:33:28;100585.92;;;1.93;72.52
68380;BME280;57711;53.196;19.638;2023-01-26T14:36:01;100586.27;;;1.93;72.57
68380;BME280;57711;53.196;19.638;2023-01-26T14:38:40;100589.52;;;1.93;72.59
68380;BME280;57711;53.196;19.638;2023-01-26T14:41:17;100587.52;;;1.93;72.73
68380;BME280;57711;53.196;19.638;2023-01-26T14:43:48;100590.05;;;1.93;72.70
68380;BME280;57711;53.196;19.638;2023-01-26T14:46:19;100592.02;;;1.93;72.73
68380;BME280;57711;53.196;19.638;2023-01-26T14:48:54;100594.45;;;1.94;72.67